Time;durP1;ratioP1;P1;durP2;ratioP2;P2;SDS_P1;SDS_P2;PMS_P1;PMS_P2;Temp;Humidity;BMP_temperature;BMP_pressure;BME280_temperature;BME280_humidity;BME280_pressure;Samples;Min_cycle;Max_cycle;Signal;HPM_P1;HPM_P2
2021/04/20 00:01:30;;;;;;;0.28;0.28;;;15.80;66.90;;;;;;4191310;28;20127;-46
2021/04/20 00:03:51;;;;;;;0.32;0.32;;;15.80;66.90;;;;;;4202113;28;20083;-46
2021/04/20 00:06:12;;;;;;;0.85;0.85;;;15.80;66.90;;;;;;4223968;28;20085;-45
2021/04/20 00:08:33;;;;;;;1.45;1.45;;;15.80;66.90;;;;;;4217664;28;20096;-47
2021/04/20 00:10:54;;;;;;;0.13;0.13;;;15.80;67.00;;;;;;4223509;28;20055;-46
2021/04/20 00:13:16;;;;;;;0.00;0.00;;;15.80;66.90;;;;;;4224075;28;20058;-46
2021/04/20 00:15:37;;;;;;;;;;;15.80;67.00;;;;;;4224921;28;20497;-46
2021/04/20 00:18:00;;;;;;;0.70;0.70;;;15.70;67.00;;;;;;4209385;28;19931;-44
2021/04/20 00:20:23;;;;;;;0.17;0.17;;;15.80;67.10;;;;;;4200490;28;20068;-47
2021/04/20 00:22:44;;;;;;;1.02;1.02;;;15.70;67.00;;;;;;4211081;28;20125;-46
2021/04/20 00:25:06;;;;;;;1.23;1.23;;;15.80;67.10;;;;;;4206662;28;20506;-45
2021/04/20 00:27:28;;;;;;;1.05;1.05;;;15.80;67.10;;;;;;4197415;28;20036;-45
2021/04/20 00:29:49;;;;;;;0.35;0.35;;;15.70;67.10;;;;;;4211383;28;20058;-47
2021/04/20 00:32:11;;;;;;;0.38;0.38;;;15.80;67.20;;;;;;4229240;28;20043;-45
2021/04/20 00:34:32;;;;;;;1.60;1.42;;;15.70;67.10;;;;;;4225036;28;20093;-46
2021/04/20 00:36:53;;;;;;;0.60;0.60;;;15.70;67.20;;;;;;4238069;28;20486;-49
2021/04/20 00:39:14;;;;;;;;;;;15.70;67.20;;;;;;4217431;28;20043;-55
2021/04/20 00:41:35;;;;;;;0.52;0.52;;;15.70;67.30;;;;;;4221913;28;19920;-46
2021/04/20 00:43:57;;;;;;;0.98;0.90;;;15.70;67.30;;;;;;4222199;28;20494;-47
2021/04/20 00:46:20;;;;;;;0.00;0.00;;;15.60;67.20;;;;;;4223662;28;20509;-44
2021/04/20 00:48:42;;;;;;;1.65;1.55;;;15.70;67.30;;;;;;4210288;28;20043;-45
2021/04/20 00:51:06;;;;;;;0.20;0.20;;;15.70;67.40;;;;;;4220242;28;20056;-46
2021/04/20 00:53:27;;;;;;;1.35;1.35;;;15.70;67.30;;;;;;4205990;28;20101;-45
2021/04/20 00:55:49;;;;;;;0.68;0.68;;;15.70;67.40;;;;;;4219206;28;20064;-46
2021/04/20 00:58:09;;;;;;;1.10;1.10;;;15.70;67.40;;;;;;4226170;28;20497;-47
2021/04/20 01:00:32;;;;;;;0.75;0.75;;;15.70;67.50;;;;;;4226686;28;20532;-47
2021/04/20 01:02:54;;;;;;;1.27;0.65;;;15.60;67.50;;;;;;4225065;28;20047;-45
2021/04/20 01:05:18;;;;;;;1.27;1.25;;;15.60;67.50;;;;;;4221491;28;20071;-46
2021/04/20 01:07:40;;;;;;;0.55;0.55;;;15.60;67.50;;;;;;4219652;28;20124;-46
2021/04/20 01:10:03;;;;;;;0.22;0.22;;;15.60;67.50;;;;;;4226412;28;20390;-45
2021/04/20 01:12:24;;;;;;;0.22;0.22;;;15.60;67.50;;;;;;4214728;27;20498;-45
2021/04/20 01:14:45;;;;;;;0.35;0.35;;;15.60;67.50;;;;;;4206773;28;20124;-46
2021/04/20 01:17:06;;;;;;;0.63;0.63;;;15.60;67.60;;;;;;4209021;28;20044;-47
2021/04/20 01:19:31;;;;;;;0.90;0.80;;;15.60;67.60;;;;;;4217545;28;20055;-45
2021/04/20 01:21:55;;;;;;;0.20;0.20;;;15.60;67.60;;;;;;4216923;28;20051;-45
2021/04/20 01:24:26;;;;;;;0.28;0.28;;;15.60;67.70;;;;;;4223479;28;20243;-46
2021/04/20 01:26:47;;;;;;;0.43;0.43;;;15.50;67.70;;;;;;4216988;28;20509;-48
2021/04/20 01:29:10;;;;;;;1.13;1.10;;;15.60;67.70;;;;;;4195572;28;20053;-49
2021/04/20 01:31:35;;;;;;;0.10;0.10;;;15.60;67.80;;;;;;4197300;28;20071;-48
2021/04/20 01:33:56;;;;;;;0.20;0.20;;;15.50;67.80;;;;;;4208439;28;20122;-49
2021/04/20 01:36:18;;;;;;;0.70;0.70;;;15.50;67.80;;;;;;4201411;28;20393;-49
2021/04/20 01:38:42;;;;;;;1.27;1.17;;;15.50;67.80;;;;;;4230570;27;20042;-48
2021/04/20 01:41:04;;;;;;;0.63;0.63;;;15.50;67.90;;;;;;4241859;27;22266;-51
2021/04/20 01:43:26;;;;;;;0.47;0.35;;;15.50;68.00;;;;;;4218402;28;20051;-47
2021/04/20 01:45:47;;;;;;;;;;;15.50;68.00;;;;;;4224606;28;20051;-48
2021/04/20 01:48:09;;;;;;;0.00;0.00;;;15.50;68.10;;;;;;4225422;28;19924;-46
2021/04/20 01:50:30;;;;;;;0.30;0.30;;;15.50;68.10;;;;;;4216699;28;20048;-52
2021/04/20 01:52:51;;;;;;;0.40;0.40;;;15.50;68.20;;;;;;4215610;28;20524;-52
2021/04/20 01:55:13;;;;;;;0.50;0.50;;;15.50;68.30;;;;;;4225260;28;20051;-50
2021/04/20 01:57:37;;;;;;;0.35;0.35;;;15.50;68.30;;;;;;4192362;28;20043;-49
2021/04/20 01:59:58;;;;;;;2.17;0.30;;;15.50;68.30;;;;;;4209161;28;20054;-52
2021/04/20 02:02:19;;;;;;;;;;;15.50;68.40;;;;;;4217209;27;20058;-48
2021/04/20 02:04:40;;;;;;;0.38;0.38;;;15.40;68.40;;;;;;4197215;28;19978;-53
2021/04/20 02:07:01;;;;;;;1.73;0.80;;;15.40;68.40;;;;;;4206198;28;20108;-45
2021/04/20 02:09:22;;;;;;;0.98;0.98;;;15.40;68.40;;;;;;4208392;28;20047;-49
2021/04/20 02:11:43;;;;;;;1.10;1.10;;;15.40;68.40;;;;;;4224828;27;20043;-48
2021/04/20 02:14:05;;;;;;;0.80;0.80;;;15.40;68.40;;;;;;4225284;27;20410;-47
2021/04/20 02:16:27;;;;;;;1.25;1.25;;;15.40;68.40;;;;;;4223542;27;20052;-45
2021/04/20 02:18:51;;;;;;;0.40;0.40;;;15.40;68.50;;;;;;4208700;28;20093;-46
2021/04/20 02:21:14;;;;;;;1.45;0.90;;;15.40;68.50;;;;;;4220046;28;20067;-48
2021/04/20 02:23:36;;;;;;;0.45;0.45;;;15.40;68.50;;;;;;4211888;28;20048;-51
2021/04/20 02:26:03;;;;;;;0.05;0.05;;;15.40;68.50;;;;;;4197838;28;20392;-49
2021/04/20 02:28:24;;;;;;;0.65;0.45;;;15.40;68.50;;;;;;4200881;28;20462;-49
2021/04/20 02:30:47;;;;;;;2.05;1.98;;;15.40;68.60;;;;;;4212870;28;20097;-48
2021/04/20 02:33:08;;;;;;;0.90;0.45;;;15.40;68.70;;;;;;4203779;28;20410;-45
2021/04/20 02:35:31;;;;;;;0.25;0.25;;;15.40;68.70;;;;;;4204101;28;20409;-52
2021/04/20 02:37:52;;;;;;;0.17;0.17;;;15.40;68.70;;;;;;4204596;28;20139;-45
2021/04/20 02:40:20;;;;;;;0.10;0.10;;;15.40;68.70;;;;;;4224907;28;20054;-47
2021/04/20 02:42:41;;;;;;;0.63;0.63;;;15.40;68.90;;;;;;4209383;28;20460;-47
2021/04/20 02:45:03;;;;;;;0.57;0.57;;;15.40;68.90;;;;;;4218636;27;20055;-45
2021/04/20 02:47:27;;;;;;;0.82;0.82;;;15.40;68.90;;;;;;4202915;28;20059;-45
2021/04/20 02:49:48;;;;;;;0.70;0.70;;;15.30;68.90;;;;;;4223858;28;20079;-47
2021/04/20 02:52:10;;;;;;;0.90;0.90;;;15.40;68.90;;;;;;4200742;28;20135;-45
2021/04/20 02:54:31;;;;;;;0.40;0.40;;;15.40;68.90;;;;;;4208199;28;20055;-45
2021/04/20 02:56:52;;;;;;;4.18;1.08;;;15.40;68.90;;;;;;4203613;28;20044;-45
2021/04/20 02:59:13;;;;;;;;;;;15.30;68.90;;;;;;4222537;28;20392;-47
2021/04/20 03:01:37;;;;;;;0.30;0.30;;;15.30;69.00;;;;;;4221622;28;19930;-48
2021/04/20 03:04:00;;;;;;;0.20;0.20;;;15.30;68.90;;;;;;4199919;28;20127;-45
2021/04/20 03:06:21;;;;;;;0.50;0.50;;;15.30;68.90;;;;;;4224606;28;20051;-46
2021/04/20 03:08:42;;;;;;;1.38;1.27;;;15.30;68.90;;;;;;4230452;27;20039;-46
2021/04/20 03:11:07;;;;;;;0.68;0.68;;;15.30;69.10;;;;;;4241576;27;20108;-47
2021/04/20 03:13:28;;;;;;;1.17;1.17;;;15.30;69.30;;;;;;4199184;28;20047;-45
2021/04/20 03:15:49;;;;;;;0.10;0.10;;;15.30;69.60;;;;;;4208327;28;20052;-46
2021/04/20 03:18:10;;;;;;;;;;;15.30;69.90;;;;;;4224567;28;20039;-47
2021/04/20 03:20:34;;;;;;;0.43;0.43;;;15.30;70.10;;;;;;4214153;27;20431;-45
2021/04/20 03:22:57;;;;;;;0.85;0.85;;;15.30;70.10;;;;;;4210524;28;20040;-46
2021/04/20 03:25:20;;;;;;;2.15;1.60;;;15.30;70.10;;;;;;4224307;28;20478;-49
2021/04/20 03:27:45;;;;;;;0.47;0.47;;;15.30;70.20;;;;;;4210023;28;20048;-48
2021/04/20 03:30:09;;;;;;;1.58;1.48;;;15.30;70.30;;;;;;4224377;28;20040;-45
2021/04/20 03:32:30;;;;;;;0.35;0.35;;;15.30;70.30;;;;;;4223180;28;20040;-45
2021/04/20 03:34:55;;;;;;;0.63;0.63;;;15.40;70.30;;;;;;4216869;28;20521;-45
2021/04/20 03:37:26;;;;;;;7.32;0.73;;;15.30;70.20;;;;;;4215357;28;20070;-44
2021/04/20 03:39:50;;;;;;;0.20;0.20;;;15.30;70.60;;;;;;4190253;28;20045;-46
2021/04/20 03:42:17;;;;;;;0.38;0.38;;;15.30;70.70;;;;;;4199393;28;20059;-49
2021/04/20 03:44:43;;;;;;;1.40;1.30;;;15.30;70.70;;;;;;4207280;28;20044;-45
2021/04/20 03:47:09;;;;;;;1.48;1.08;;;15.30;70.70;;;;;;4213802;28;24380;-50
2021/04/20 03:49:34;;;;;;;0.40;0.40;;;15.30;70.90;;;;;;4211860;28;20101;-45
2021/04/20 03:51:58;;;;;;;1.02;1.02;;;15.30;70.90;;;;;;4202661;28;20052;-46
2021/04/20 03:54:21;;;;;;;3.00;1.85;;;15.30;71.00;;;;;;4191042;28;20049;-44
2021/04/20 03:56:46;;;;;;;0.20;0.20;;;15.30;71.00;;;;;;4190794;28;20045;-49
2021/04/20 03:59:08;;;;;;;0.75;0.75;;;15.30;71.10;;;;;;4224062;28;20054;-44
2021/04/20 04:01:33;;;;;;;0.38;0.38;;;15.30;71.00;;;;;;4223164;28;20428;-44
2021/04/20 04:03:56;;;;;;;1.08;0.70;;;15.30;71.10;;;;;;4223363;28;20814;-45
2021/04/20 04:06:21;;;;;;;0.70;0.70;;;15.30;71.10;;;;;;4214944;28;20064;-44
2021/04/20 04:08:43;;;;;;;0.00;0.00;;;15.30;71.20;;;;;;4210552;28;20517;-44
2021/04/20 04:11:07;;;;;;;0.22;0.22;;;15.30;71.20;;;;;;4221838;28;20450;-45
2021/04/20 04:13:29;;;;;;;0.00;0.00;;;15.30;71.10;;;;;;4218956;28;20452;-48
2021/04/20 04:15:56;;;;;;;18.20;1.92;;;15.30;71.10;;;;;;4240990;28;20551;-50
2021/04/20 04:18:19;;;;;;;0.47;0.47;;;15.30;71.10;;;;;;4213428;28;20056;-48
2021/04/20 04:20:39;;;;;;;0.00;0.00;;;15.30;71.20;;;;;;4223589;28;20051;-46
2021/04/20 04:23:05;;;;;;;0.20;0.20;;;15.30;71.00;;;;;;4220323;28;20545;-47
2021/04/20 04:25:32;;;;;;;1.73;1.63;;;15.30;71.10;;;;;;4240069;27;20055;-47
2021/04/20 04:27:58;;;;;;;1.92;1.83;;;15.30;71.10;;;;;;4240347;27;20051;-45
2021/04/20 04:30:21;;;;;;;0.77;0.77;;;15.20;71.00;;;;;;4240668;27;20054;-46
2021/04/20 04:32:44;;;;;;;1.05;1.05;;;15.20;71.00;;;;;;4223542;27;20123;-46
2021/04/20 04:35:06;;;;;;;0.28;0.28;;;15.20;71.00;;;;;;4209855;28;20075;-44
2021/04/20 04:37:28;;;;;;;2.05;0.77;;;15.20;70.90;;;;;;4225169;27;20043;-46
2021/04/20 04:39:49;;;;;;;;;;;15.20;71.00;;;;;;4227465;28;20521;-44
2021/04/20 04:42:10;;;;;;;0.35;0.35;;;15.20;71.10;;;;;;4213763;28;19926;-44
2021/04/20 04:44:32;;;;;;;0.75;0.75;;;15.20;71.00;;;;;;4222698;28;20133;-47
2021/04/20 04:46:53;;;;;;;1.00;1.00;;;15.20;71.00;;;;;;4214533;28;20410;-45
2021/04/20 04:49:15;;;;;;;0.95;0.95;;;15.20;71.10;;;;;;4226859;28;20458;-45
2021/04/20 04:51:38;;;;;;;3.40;1.65;;;15.20;71.10;;;;;;4219954;28;20125;-47
2021/04/20 04:54:01;;;;;;;0.80;0.80;;;15.20;72.00;;;;;;4226504;28;20108;-48
2021/04/20 04:56:22;;;;;;;0.40;0.40;;;15.20;71.10;;;;;;4232587;27;20512;-45
2021/04/20 04:58:44;;;;;;;0.35;0.30;;;15.20;71.10;;;;;;4226613;28;20109;-44
2021/04/20 05:01:07;;;;;;;0.17;0.17;;;15.20;71.10;;;;;;4221743;28;20410;-44
2021/04/20 05:03:28;;;;;;;0.40;0.40;;;15.20;71.10;;;;;;4223164;27;20436;-45
2021/04/20 05:05:54;;;;;;;0.47;0.45;;;15.20;71.10;;;;;;4226548;28;20055;-45
2021/04/20 05:08:16;;;;;;;0.13;0.13;;;15.20;71.00;;;;;;4218990;27;20391;-45
2021/04/20 05:10:36;;;;;;;;;;;15.20;71.00;;;;;;4195236;28;20421;-44
2021/04/20 05:12:58;;;;;;;0.30;0.30;;;15.20;71.00;;;;;;4215111;28;20017;-45
2021/04/20 05:15:20;;;;;;;0.30;0.30;;;15.20;70.90;;;;;;4216090;28;20044;-45
2021/04/20 05:17:43;;;;;;;0.17;0.17;;;15.20;70.90;;;;;;4227340;27;20160;-46
2021/04/20 05:20:05;;;;;;;0.47;0.47;;;15.20;70.90;;;;;;4222740;28;20043;-44
2021/04/20 05:22:27;;;;;;;1.38;0.85;;;15.20;70.80;;;;;;4198681;28;20055;-45
2021/04/20 05:24:48;;;;;;;0.20;0.20;;;15.20;70.90;;;;;;4225949;28;20512;-46
2021/04/20 05:27:11;;;;;;;0.30;0.30;;;15.20;71.20;;;;;;4210522;27;20415;-46
2021/04/20 05:29:32;;;;;;;2.50;1.92;;;15.30;71.30;;;;;;4192772;28;20550;-44
2021/04/20 05:31:53;;;;;;;;;;;15.30;71.40;;;;;;4207615;28;20076;-44
2021/04/20 05:34:18;;;;;;;1.98;1.58;;;15.30;71.50;;;;;;4209197;28;20037;-43
2021/04/20 05:36:40;;;;;;;0.00;0.00;;;15.30;71.40;;;;;;4225706;28;20108;-44
2021/04/20 05:39:04;;;;;;;0.30;0.30;;;15.40;72.10;;;;;;4217391;27;20045;-46
2021/04/20 05:41:26;;;;;;;0.63;0.43;;;15.50;73.00;;;;;;4224894;28;20062;-44
2021/04/20 05:43:49;;;;;;;0.40;0.40;;;15.50;72.20;;;;;;4217139;28;20406;-45
2021/04/20 05:46:11;;;;;;;0.68;0.68;;;15.50;71.60;;;;;;4218021;27;20067;-47
2021/04/20 05:48:32;;;;;;;0.00;0.00;;;15.60;71.20;;;;;;4221030;27;20129;-45
2021/04/20 05:50:54;;;;;;;0.03;0.03;;;15.50;70.80;;;;;;4217105;28;20048;-46
2021/04/20 05:53:15;;;;;;;1.08;1.08;;;15.50;70.60;;;;;;4209243;28;20047;-49
2021/04/20 05:55:38;;;;;;;0.20;0.20;;;15.50;70.40;;;;;;4209208;28;20140;-45
2021/04/20 05:57:59;;;;;;;0.38;0.22;;;15.50;70.30;;;;;;4215321;28;20062;-46
2021/04/20 06:00:22;;;;;;;0.22;0.22;;;15.50;70.10;;;;;;4225647;28;20039;-48
2021/04/20 06:02:46;;;;;;;1.10;1.00;;;15.50;70.00;;;;;;4223611;28;20044;-48
2021/04/20 06:05:11;;;;;;;0.82;0.82;;;15.50;69.90;;;;;;4220907;27;20047;-45
2021/04/20 06:07:35;;;;;;;0.57;0.57;;;15.50;69.80;;;;;;4216505;28;20691;-44
2021/04/20 06:09:57;;;;;;;1.77;1.77;;;15.50;69.80;;;;;;4189874;28;20118;-45
2021/04/20 06:12:18;;;;;;;1.05;1.05;;;15.40;69.60;;;;;;4208513;28;20194;-44
2021/04/20 06:14:40;;;;;;;0.20;0.20;;;15.40;69.40;;;;;;4222630;27;20058;-45
2021/04/20 06:17:01;;;;;;;0.00;0.00;;;15.40;69.40;;;;;;4241839;27;20100;-45
2021/04/20 06:19:22;;;;;;;;;;;15.40;69.30;;;;;;4242255;27;20050;-45
2021/04/20 06:21:46;;;;;;;0.50;0.50;;;15.40;69.20;;;;;;4242130;27;20369;-44
2021/04/20 06:24:09;;;;;;;1.00;1.00;;;15.40;69.10;;;;;;4242143;27;20116;-44
2021/04/20 06:26:34;;;;;;;0.60;0.52;;;15.40;68.90;;;;;;4207637;28;20464;-45
2021/04/20 06:28:55;;;;;;;0.20;0.20;;;15.40;68.70;;;;;;4208343;28;20063;-49
2021/04/20 06:31:17;;;;;;;0.57;0.57;;;15.40;68.40;;;;;;4208769;28;20482;-46
2021/04/20 06:33:38;;;;;;;;;;;15.50;68.10;;;;;;4209185;28;20500;-44
2021/04/20 06:36:03;;;;;;;3.13;0.85;;;15.50;67.80;;;;;;4228516;27;20437;-44
2021/04/20 06:38:24;;;;;;;2.28;1.48;;;15.50;67.50;;;;;;4201243;28;20055;-44
2021/04/20 06:40:48;;;;;;;0.50;0.50;;;15.50;67.10;;;;;;4208613;28;20044;-46
2021/04/20 06:43:12;;;;;;;0.10;0.10;;;15.50;66.60;;;;;;4205195;28;20533;-44
2021/04/20 06:45:38;;;;;;;0.75;0.60;;;15.60;66.30;;;;;;4201340;28;20036;-48
2021/04/20 06:48:03;;;;;;;1.45;1.45;;;15.60;66.20;;;;;;4224599;28;20398;-46
2021/04/20 06:50:26;;;;;;;0.52;0.52;;;15.70;65.90;;;;;;4224406;28;20070;-44
2021/04/20 06:52:51;;;;;;;2.72;0.95;;;15.70;65.80;;;;;;4207947;28;20482;-45
2021/04/20 06:55:22;;;;;;;0.20;0.20;;;15.70;65.50;;;;;;4194525;28;20048;-44
2021/04/20 06:57:48;;;;;;;;;;;15.70;65.00;;;;;;4194313;28;20129;-44
2021/04/20 07:00:14;;;;;;;0.20;0.20;;;15.70;64.40;;;;;;4207534;28;19920;-44
2021/04/20 07:02:45;;;;;;;1.85;1.75;;;15.70;64.10;;;;;;4209245;28;20078;-46
2021/04/20 07:05:10;;;;;;;0.70;0.70;;;15.70;63.70;;;;;;4222768;28;20245;-45
2021/04/20 07:07:42;;;;;;;0.68;0.68;;;15.70;63.10;;;;;;4224844;28;20081;-45
2021/04/20 07:10:07;;;;;;;0.47;0.47;;;15.80;62.90;;;;;;4224262;28;20386;-47
2021/04/20 07:12:30;;;;;;;0.77;0.77;;;15.80;62.70;;;;;;4224561;28;20541;-47
2021/04/20 07:14:55;;;;;;;2.38;2.17;;;15.80;62.70;;;;;;4224312;28;20100;-44
2021/04/20 07:17:48;;;;;;;0.20;0.20;;;15.80;62.70;;;;;;4206339;28;20044;-46
2021/04/20 07:20:25;;;;;;;0.40;0.40;;;15.80;62.50;;;;;;4199457;28;20055;-46
2021/04/20 07:23:25;;;;;;;0.15;0.15;;;15.90;62.20;;;;;;4215474;28;20032;-45
2021/04/20 07:26:34;;;;;;;0.00;0.00;;;15.90;62.30;;;;;;4220074;27;20061;-44
2021/04/20 07:29:10;;;;;;;0.20;0.20;;;15.90;62.10;;;;;;4170666;28;20044;-46
2021/04/20 07:31:44;;;;;;;0.25;0.25;;;16.00;62.30;;;;;;4172005;28;20098;-46
2021/04/20 07:34:14;;;;;;;0.40;0.40;;;15.90;62.40;;;;;;4185844;28;20078;-45
2021/04/20 07:36:46;;;;;;;0.30;0.30;;;16.00;62.10;;;;;;4206528;28;20080;-48
2021/04/20 07:39:14;;;;;;;3.58;1.20;;;16.00;62.10;;;;;;4223949;28;20266;-46
2021/04/20 07:41:42;;;;;;;4.00;1.75;;;16.00;62.20;;;;;;4223590;28;20108;-44
2021/04/20 07:44:09;;;;;;;6.82;1.42;;;16.00;62.50;;;;;;4223291;28;20055;-50
2021/04/20 07:46:38;;;;;;;0.10;0.10;;;16.10;62.60;;;;;;4224399;28;20375;-48
2021/04/20 07:49:09;;;;;;;1.85;1.45;;;16.10;62.40;;;;;;4217692;28;20059;-47
2021/04/20 07:51:42;;;;;;;0.70;0.70;;;16.10;63.40;;;;;;4200486;28;20067;-46
2021/04/20 07:54:09;;;;;;;1.00;1.00;;;16.10;62.70;;;;;;4206738;28;20448;-46
2021/04/20 07:56:35;;;;;;;0.57;0.57;;;16.10;62.60;;;;;;4222799;28;20497;-45
2021/04/20 07:59:00;;;;;;;0.17;0.17;;;16.10;62.30;;;;;;4223833;28;20437;-48
2021/04/20 08:01:43;;;;;;;0.00;0.00;;;16.20;62.30;;;;;;4219505;28;20051;-46
2021/04/20 08:04:16;;;;;;;0.88;0.52;;;16.20;62.40;;;;;;4227442;28;20490;-45
2021/04/20 08:06:39;;;;;;;0.20;0.20;;;16.20;62.00;;;;;;4210786;28;20052;-44
2021/04/20 08:09:04;;;;;;;1.00;1.00;;;16.20;61.30;;;;;;4227240;28;20043;-45
2021/04/20 08:11:29;;;;;;;0.08;0.08;;;16.20;61.00;;;;;;4226527;27;20060;-47
2021/04/20 08:13:54;;;;;;;0.60;0.60;;;16.30;61.00;;;;;;4227389;28;20059;-43
2021/04/20 08:16:24;;;;;;;0.98;0.98;;;16.30;61.10;;;;;;4227264;28;20120;-44
2021/04/20 08:18:54;;;;;;;0.10;0.10;;;16.30;60.80;;;;;;4227740;28;20122;-44
2021/04/20 08:21:16;;;;;;;0.10;0.10;;;16.30;61.10;;;;;;4208603;28;20047;-44
2021/04/20 08:23:40;;;;;;;0.30;0.30;;;16.30;61.70;;;;;;4226722;28;20035;-45
2021/04/20 08:26:11;;;;;;;0.20;0.20;;;16.40;60.80;;;;;;4199767;28;20563;-45
2021/04/20 08:28:40;;;;;;;5.13;4.20;;;16.40;61.00;;;;;;4211486;28;20120;-48
2021/04/20 08:31:06;;;;;;;1.15;0.68;;;16.40;60.60;;;;;;4224058;28;20056;-46
2021/04/20 08:33:32;;;;;;;0.45;0.45;;;16.40;61.30;;;;;;4224005;28;20047;-48
2021/04/20 08:35:57;;;;;;;1.17;1.08;;;16.50;61.30;;;;;;4227313;27;20035;-45
2021/04/20 08:38:32;;;;;;;0.00;0.00;;;16.50;60.30;;;;;;4226058;28;20100;-45
2021/04/20 08:41:07;;;;;;;0.20;0.20;;;16.50;60.20;;;;;;4213713;27;20461;-45
2021/04/20 08:43:44;;;;;;;2.67;1.05;;;16.50;60.30;;;;;;4210029;28;20486;-46
2021/04/20 08:46:18;;;;;;;0.50;0.30;;;16.50;60.40;;;;;;4210169;28;20359;-44
2021/04/20 08:48:50;;;;;;;1.58;1.27;;;16.50;60.40;;;;;;4209922;28;20052;-48
2021/04/20 08:51:22;;;;;;;0.20;0.20;;;16.60;60.30;;;;;;4193108;28;20513;-44
2021/04/20 08:53:58;;;;;;;0.00;0.00;;;16.60;60.50;;;;;;4192764;28;20056;-44
2021/04/20 08:56:29;;;;;;;0.30;0.30;;;16.60;60.30;;;;;;4200987;28;20043;-45
2021/04/20 08:59:08;;;;;;;1.85;0.93;;;16.60;60.20;;;;;;4209333;28;20425;-46
2021/04/20 09:01:41;;;;;;;0.00;0.00;;;16.60;60.20;;;;;;4209425;28;20068;-45
2021/04/20 09:04:14;;;;;;;0.08;0.08;;;16.70;60.00;;;;;;4209395;28;20485;-47
2021/04/20 09:06:45;;;;;;;0.30;0.30;;;16.70;60.20;;;;;;4208622;28;20044;-46
2021/04/20 09:09:08;;;;;;;1.17;1.05;;;16.70;60.20;;;;;;4209555;28;20127;-44
2021/04/20 09:11:35;;;;;;;2.25;2.08;;;16.70;60.10;;;;;;4225372;28;20071;-45
2021/04/20 09:14:01;;;;;;;4.10;0.90;;;16.70;59.40;;;;;;4226292;28;20132;-44
2021/04/20 09:16:29;;;;;;;0.57;0.22;;;16.70;59.30;;;;;;4225832;28;20107;-46
2021/04/20 09:18:52;;;;;;;2.17;1.70;;;16.80;59.00;;;;;;4226520;28;20079;-45
2021/04/20 09:21:18;;;;;;;0.10;0.10;;;16.80;58.70;;;;;;4210708;28;20172;-56
2021/04/20 09:23:49;;;;;;;0.75;0.75;;;16.80;58.50;;;;;;4207616;28;20055;-46
2021/04/20 09:26:25;;;;;;;2.00;1.90;;;16.90;58.30;;;;;;4196757;28;20485;-48
2021/04/20 09:28:58;;;;;;;0.30;0.30;;;16.90;58.30;;;;;;4209586;28;20509;-51
2021/04/20 09:31:21;;;;;;;0.43;0.43;;;16.90;58.10;;;;;;4192418;28;20055;-46
2021/04/20 09:33:46;;;;;;;1.25;0.63;;;16.90;58.10;;;;;;4210520;28;20051;-48
2021/04/20 09:36:09;;;;;;;1.92;1.50;;;16.90;58.50;;;;;;4225639;28;20047;-46
2021/04/20 09:38:32;;;;;;;5.30;2.17;;;17.00;58.30;;;;;;4202503;28;20052;-49
2021/04/20 09:40:56;;;;;;;0.55;0.55;;;16.90;58.10;;;;;;4225864;28;20055;-45
2021/04/20 09:43:30;;;;;;;0.65;0.65;;;17.00;57.80;;;;;;4203137;28;20127;-48
2021/04/20 09:45:57;;;;;;;0.00;0.00;;;17.00;57.60;;;;;;4203325;28;20052;-44
2021/04/20 09:48:24;;;;;;;0.30;0.30;;;17.10;57.70;;;;;;4220801;28;20147;-46
2021/04/20 09:50:54;;;;;;;4.18;2.00;;;17.10;57.70;;;;;;4217149;27;20055;-43
2021/04/20 09:53:33;;;;;;;0.65;0.65;;;17.20;58.80;;;;;;4240325;27;20099;-44
2021/04/20 09:56:07;;;;;;;0.88;0.88;;;17.20;58.40;;;;;;4214717;28;20060;-45
2021/04/20 09:58:31;;;;;;;0.55;0.55;;;17.30;58.20;;;;;;4192272;28;20121;-45
2021/04/20 10:00:53;;;;;;;0.10;0.10;;;17.30;57.40;;;;;;4204852;28;20051;-43
2021/04/20 10:03:25;;;;;;;0.98;0.98;;;17.40;57.70;;;;;;4205823;28;20110;-44
2021/04/20 10:06:05;;;;;;;3.30;1.63;;;17.40;57.60;;;;;;4233321;27;20050;-44
2021/04/20 10:08:37;;;;;;;0.35;0.35;;;17.40;57.20;;;;;;4242316;27;20043;-46
2021/04/20 10:11:04;;;;;;;1.27;1.27;;;17.40;56.80;;;;;;4223615;28;20409;-43
2021/04/20 10:13:56;;;;;;;0.65;0.65;;;17.50;56.60;;;;;;4225571;28;20043;-44
2021/04/20 10:16:21;;;;;;;0.43;0.43;;;17.50;56.50;;;;;;4224622;28;20276;-44
2021/04/20 10:18:53;;;;;;;0.00;0.00;;;17.50;56.20;;;;;;4214957;27;20059;-44
2021/04/20 10:21:21;;;;;;;1.75;0.50;;;17.50;56.10;;;;;;4208389;28;20498;-45
2021/04/20 10:23:50;;;;;;;0.20;0.20;;;17.50;55.90;;;;;;4213633;27;20489;-43
2021/04/20 10:26:22;;;;;;;0.00;0.00;;;17.60;55.50;;;;;;4214551;27;20125;-43
2021/04/20 10:28:48;;;;;;;0.40;0.38;;;17.60;55.80;;;;;;4208642;28;20055;-44
2021/04/20 10:31:16;;;;;;;2.10;1.35;;;17.60;55.50;;;;;;4207896;28;20071;-43
2021/04/20 10:33:40;;;;;;;0.28;0.28;;;17.60;55.50;;;;;;4208350;28;20569;-44
2021/04/20 10:36:03;;;;;;;0.85;0.85;;;17.70;55.50;;;;;;4214258;28;20405;-43
2021/04/20 10:38:32;;;;;;;1.42;1.42;;;17.70;55.30;;;;;;4219199;28;20142;-44
2021/04/20 10:40:54;;;;;;;0.65;0.65;;;17.70;55.10;;;;;;4224775;28;20124;-43
2021/04/20 10:43:19;;;;;;;0.03;0.03;;;17.70;54.90;;;;;;4219995;28;20502;-43
2021/04/20 10:45:41;;;;;;;0.40;0.40;;;17.70;54.70;;;;;;4202745;28;20646;-44
2021/04/20 10:48:04;;;;;;;0.25;0.25;;;17.80;54.60;;;;;;4216369;28;20039;-44
2021/04/20 10:50:27;;;;;;;1.77;1.65;;;17.80;54.80;;;;;;4224764;28;20059;-45
2021/04/20 10:52:53;;;;;;;0.55;0.55;;;17.80;54.70;;;;;;4224564;28;20055;-44
2021/04/20 10:55:16;;;;;;;0.08;0.08;;;17.80;54.50;;;;;;4213697;28;20123;-44
2021/04/20 10:57:39;;;;;;;0.55;0.55;;;17.80;54.50;;;;;;4202651;28;20044;-46
2021/04/20 11:00:04;;;;;;;5.28;1.45;;;17.90;54.50;;;;;;4200972;28;20055;-46
2021/04/20 11:02:32;;;;;;;0.00;0.00;;;17.90;54.60;;;;;;4219239;28;20069;-44
2021/04/20 11:04:55;;;;;;;0.35;0.35;;;17.90;54.50;;;;;;4216253;28;20470;-49
2021/04/20 11:07:22;;;;;;;0.30;0.30;;;17.90;54.40;;;;;;4221894;28;20051;-57
2021/04/20 11:09:45;;;;;;;0.43;0.43;;;17.90;54.10;;;;;;4206543;27;20681;-45
2021/04/20 11:12:16;;;;;;;0.77;0.77;;;18.00;54.20;;;;;;4191467;28;20051;-44
2021/04/20 11:14:38;;;;;;;2.20;0.85;;;18.00;53.90;;;;;;4204181;27;20093;-45
2021/04/20 11:17:01;;;;;;;2.75;1.30;;;18.00;53.80;;;;;;4208254;28;20052;-44
2021/04/20 11:19:22;;;;;;;2.85;1.40;;;18.00;53.60;;;;;;4210600;27;20497;-44
2021/04/20 11:21:45;;;;;;;0.30;0.30;;;18.00;53.50;;;;;;4208039;28;20131;-43
2021/04/20 11:24:15;;;;;;;0.32;0.32;;;18.10;53.50;;;;;;4210403;27;20353;-44
2021/04/20 11:26:40;;;;;;;0.00;0.00;;;18.10;53.40;;;;;;4207597;28;20101;-43
2021/04/20 11:29:09;;;;;;;0.90;0.90;;;18.10;53.00;;;;;;4190684;28;20132;-44
2021/04/20 11:31:34;;;;;;;0.13;0.13;;;18.10;53.10;;;;;;4189967;28;20062;-43
2021/04/20 11:34:01;;;;;;;0.00;0.00;;;18.10;53.00;;;;;;4202229;28;20056;-46
2021/04/20 11:36:25;;;;;;;1.05;1.05;;;18.20;53.20;;;;;;4207239;28;20048;-44
2021/04/20 11:38:49;;;;;;;0.73;0.70;;;18.20;53.20;;;;;;4179472;28;20045;-42
2021/04/20 11:41:13;;;;;;;0.00;0.00;;;18.20;53.20;;;;;;4206998;28;20907;-44
2021/04/20 11:43:37;;;;;;;0.10;0.10;;;18.20;54.20;;;;;;4210003;28;20182;-45
2021/04/20 11:45:59;;;;;;;0.57;0.47;;;18.20;53.30;;;;;;4223917;28;20764;-44
2021/04/20 11:48:27;;;;;;;0.20;0.20;;;18.30;53.10;;;;;;4206088;28;20043;-47
2021/04/20 11:50:53;;;;;;;0.57;0.57;;;18.30;52.80;;;;;;4190563;28;20071;-45
2021/04/20 11:53:14;;;;;;;0.10;0.10;;;18.30;52.50;;;;;;4192096;28;20054;-43
2021/04/20 11:55:39;;;;;;;0.73;0.73;;;18.30;52.40;;;;;;4207043;28;20544;-43
2021/04/20 11:58:10;;;;;;;0.10;0.10;;;18.40;52.50;;;;;;4223980;28;20050;-47
2021/04/20 12:00:32;;;;;;;0.20;0.20;;;18.40;52.60;;;;;;4224033;28;20051;-46
2021/04/20 12:02:53;;;;;;;0.43;0.43;;;18.40;52.80;;;;;;4224354;28;20060;-44
2021/04/20 12:05:19;;;;;;;0.10;0.10;;;18.40;52.70;;;;;;4218425;28;20048;-44
2021/04/20 12:07:42;;;;;;;0.20;0.20;;;18.40;52.20;;;;;;4207206;28;20056;-42
2021/04/20 12:10:04;;;;;;;0.08;0.08;;;18.40;52.00;;;;;;4212181;28;20071;-44
2021/04/20 12:12:27;;;;;;;1.73;1.10;;;18.40;52.60;;;;;;4216837;28;20043;-44
2021/04/20 12:14:49;;;;;;;1.60;1.25;;;18.50;51.90;;;;;;4190037;28;20060;-44
2021/04/20 12:17:10;;;;;;;0.35;0.35;;;18.50;51.90;;;;;;4190439;28;20075;-46
2021/04/20 12:19:33;;;;;;;0.13;0.13;;;18.50;51.80;;;;;;4190687;28;20048;-45
2021/04/20 12:21:56;;;;;;;0.17;0.17;;;18.50;51.80;;;;;;4205295;28;20421;-44
2021/04/20 12:24:19;;;;;;;0.03;0.03;;;18.50;51.80;;;;;;4211700;28;20048;-44
2021/04/20 12:26:41;;;;;;;0.20;0.20;;;18.60;51.80;;;;;;4210003;28;20129;-45
2021/04/20 12:29:09;;;;;;;0.32;0.32;;;18.60;51.70;;;;;;4223837;28;20047;-46
2021/04/20 12:31:32;;;;;;;3.15;0.77;;;18.60;51.90;;;;;;4222547;28;20063;-44
2021/04/20 12:33:54;;;;;;;4.28;0.57;;;18.60;52.00;;;;;;4215673;28;20472;-46
2021/04/20 12:36:26;;;;;;;;;;;18.60;51.90;;;;;;4224351;28;20081;-44
2021/04/20 12:38:46;;;;;;;0.10;0.10;;;18.60;51.30;;;;;;4220484;28;19923;-45